sensor_id;sensor_type;location;lat;lon;timestamp;P1;durP1;ratioP1;P2;durP2;ratioP2
21806;SDS011;11065;50.786;7.840;2023-08-17T00:02:11;2.23;;;1.37;;
21806;SDS011;11065;50.786;7.840;2023-08-17T00:04:41;3.17;;;1.50;;
21806;SDS011;11065;50.786;7.840;2023-08-17T00:07:09;3.07;;;1.60;;
21806;SDS011;11065;50.786;7.840;2023-08-17T00:09:38;3.43;;;1.40;;
21806;SDS011;11065;50.786;7.840;2023-08-17T00:12:06;2.53;;;1.53;;
21806;SDS011;11065;50.786;7.840;2023-08-17T00:14:34;3.60;;;1.50;;
21806;SDS011;11065;50.786;7.840;2023-08-17T00:17:02;2.23;;;1.10;;
21806;SDS011;11065;50.786;7.840;2023-08-17T00:19:30;3.00;;;1.50;;
21806;SDS011;11065;50.786;7.840;2023-08-17T00:21:59;2.13;;;1.27;;
21806;SDS011;11065;50.786;7.840;2023-08-17T00:24:27;4.43;;;1.27;;
21806;SDS011;11065;50.786;7.840;2023-08-17T00:26:55;2.73;;;1.53;;
21806;SDS011;11065;50.786;7.840;2023-08-17T00:29:23;2.70;;;1.23;;
21806;SDS011;11065;50.786;7.840;2023-08-17T00:31:51;5.03;;;1.10;;
21806;SDS011;11065;50.786;7.840;2023-08-17T00:34:19;3.23;;;1.27;;
21806;SDS011;11065;50.786;7.840;2023-08-17T00:36:47;5.00;;;1.47;;
21806;SDS011;11065;50.786;7.840;2023-08-17T00:39:16;2.50;;;1.37;;
21806;SDS011;11065;50.786;7.840;2023-08-17T00:41:45;4.03;;;1.50;;
21806;SDS011;11065;50.786;7.840;2023-08-17T00:44:13;5.00;;;1.40;;
21806;SDS011;11065;50.786;7.840;2023-08-17T00:46:41;3.70;;;1.43;;
21806;SDS011;11065;50.786;7.840;2023-08-17T00:49:09;3.80;;;1.20;;
21806;SDS011;11065;50.786;7.840;2023-08-17T00:51:37;15.07;;;2.00;;
21806;SDS011;11065;50.786;7.840;2023-08-17T00:54:06;23.10;;;2.73;;
21806;SDS011;11065;50.786;7.840;2023-08-17T00:56:36;6.23;;;2.10;;
21806;SDS011;11065;50.786;7.840;2023-08-17T00:59:04;4.40;;;1.30;;
21806;SDS011;11065;50.786;7.840;2023-08-17T01:01:33;3.63;;;1.63;;
21806;SDS011;11065;50.786;7.840;2023-08-17T01:04:01;2.77;;;1.47;;
21806;SDS011;11065;50.786;7.840;2023-08-17T01:06:29;7.27;;;1.70;;
21806;SDS011;11065;50.786;7.840;2023-08-17T01:08:57;3.33;;;1.40;;
21806;SDS011;11065;50.786;7.840;2023-08-17T01:11:27;6.47;;;1.60;;
21806;SDS011;11065;50.786;7.840;2023-08-17T01:14:02;4.73;;;1.37;;
21806;SDS011;11065;50.786;7.840;2023-08-17T01:16:38;4.23;;;1.43;;
21806;SDS011;11065;50.786;7.840;2023-08-17T01:19:10;4.33;;;1.30;;
21806;SDS011;11065;50.786;7.840;2023-08-17T01:21:49;3.50;;;1.70;;
21806;SDS011;11065;50.786;7.840;2023-08-17T01:24:23;6.47;;;1.97;;
21806;SDS011;11065;50.786;7.840;2023-08-17T01:26:50;2.63;;;1.37;;
21806;SDS011;11065;50.786;7.840;2023-08-17T01:29:19;5.97;;;1.53;;
21806;SDS011;11065;50.786;7.840;2023-08-17T01:31:51;2.73;;;1.50;;
21806;SDS011;11065;50.786;7.840;2023-08-17T01:34:25;4.50;;;1.47;;
21806;SDS011;11065;50.786;7.840;2023-08-17T01:36:57;5.87;;;1.77;;
21806;SDS011;11065;50.786;7.840;2023-08-17T01:39:32;4.57;;;1.70;;
21806;SDS011;11065;50.786;7.840;2023-08-17T01:42:04;3.33;;;1.70;;
21806;SDS011;11065;50.786;7.840;2023-08-17T01:44:33;4.93;;;1.70;;
21806;SDS011;11065;50.786;7.840;2023-08-17T01:47:02;3.77;;;1.53;;
21806;SDS011;11065;50.786;7.840;2023-08-17T01:49:30;5.10;;;1.77;;
21806;SDS011;11065;50.786;7.840;2023-08-17T01:51:58;5.93;;;1.77;;
21806;SDS011;11065;50.786;7.840;2023-08-17T01:54:27;4.10;;;1.40;;
21806;SDS011;11065;50.786;7.840;2023-08-17T01:56:57;2.53;;;1.20;;
21806;SDS011;11065;50.786;7.840;2023-08-17T01:59:25;5.03;;;1.20;;
21806;SDS011;11065;50.786;7.840;2023-08-17T02:01:53;4.20;;;1.50;;
21806;SDS011;11065;50.786;7.840;2023-08-17T02:04:21;3.40;;;1.40;;
21806;SDS011;11065;50.786;7.840;2023-08-17T02:06:49;3.67;;;1.13;;
21806;SDS011;11065;50.786;7.840;2023-08-17T02:09:18;2.63;;;1.20;;
21806;SDS011;11065;50.786;7.840;2023-08-17T02:11:45;3.03;;;1.50;;
21806;SDS011;11065;50.786;7.840;2023-08-17T02:14:15;6.03;;;1.30;;
21806;SDS011;11065;50.786;7.840;2023-08-17T02:16:43;4.07;;;1.53;;
21806;SDS011;11065;50.786;7.840;2023-08-17T02:19:11;2.57;;;1.20;;
21806;SDS011;11065;50.786;7.840;2023-08-17T02:21:40;5.00;;;1.63;;
21806;SDS011;11065;50.786;7.840;2023-08-17T02:24:08;3.17;;;1.50;;
21806;SDS011;11065;50.786;7.840;2023-08-17T02:26:36;2.43;;;1.20;;
21806;SDS011;11065;50.786;7.840;2023-08-17T02:29:06;1.57;;;1.00;;
21806;SDS011;11065;50.786;7.840;2023-08-17T02:31:35;5.00;;;1.40;;
21806;SDS011;11065;50.786;7.840;2023-08-17T02:34:03;2.80;;;1.10;;
21806;SDS011;11065;50.786;7.840;2023-08-17T02:36:32;3.37;;;1.40;;
21806;SDS011;11065;50.786;7.840;2023-08-17T02:39:02;5.40;;;1.60;;
21806;SDS011;11065;50.786;7.840;2023-08-17T02:41:30;4.40;;;1.23;;
21806;SDS011;11065;50.786;7.840;2023-08-17T02:43:58;2.63;;;1.10;;
21806;SDS011;11065;50.786;7.840;2023-08-17T02:46:27;3.37;;;1.27;;
21806;SDS011;11065;50.786;7.840;2023-08-17T02:48:56;4.27;;;1.50;;
21806;SDS011;11065;50.786;7.840;2023-08-17T02:51:24;3.07;;;1.37;;
21806;SDS011;11065;50.786;7.840;2023-08-17T02:53:52;11.83;;;2.00;;
21806;SDS011;11065;50.786;7.840;2023-08-17T02:56:21;6.33;;;1.87;;
21806;SDS011;11065;50.786;7.840;2023-08-17T02:58:49;9.10;;;2.00;;
21806;SDS011;11065;50.786;7.840;2023-08-17T03:01:16;8.10;;;1.90;;
21806;SDS011;11065;50.786;7.840;2023-08-17T03:03:44;3.03;;;1.80;;
21806;SDS011;11065;50.786;7.840;2023-08-17T03:06:14;5.63;;;1.93;;
21806;SDS011;11065;50.786;7.840;2023-08-17T03:08:42;6.27;;;2.43;;
21806;SDS011;11065;50.786;7.840;2023-08-17T03:11:10;6.63;;;2.07;;
21806;SDS011;11065;50.786;7.840;2023-08-17T03:13:38;4.90;;;2.20;;
21806;SDS011;11065;50.786;7.840;2023-08-17T03:16:06;9.60;;;2.40;;
21806;SDS011;11065;50.786;7.840;2023-08-17T03:18:36;6.50;;;2.20;;
21806;SDS011;11065;50.786;7.840;2023-08-17T03:21:05;6.10;;;2.10;;
21806;SDS011;11065;50.786;7.840;2023-08-17T03:23:34;5.00;;;1.53;;
21806;SDS011;11065;50.786;7.840;2023-08-17T03:26:02;6.37;;;1.70;;
21806;SDS011;11065;50.786;7.840;2023-08-17T03:28:31;3.77;;;1.47;;
21806;SDS011;11065;50.786;7.840;2023-08-17T03:30:58;2.30;;;1.50;;
21806;SDS011;11065;50.786;7.840;2023-08-17T03:33:27;3.87;;;1.43;;
21806;SDS011;11065;50.786;7.840;2023-08-17T03:35:55;1.93;;;1.50;;
21806;SDS011;11065;50.786;7.840;2023-08-17T03:38:24;3.50;;;1.63;;
21806;SDS011;11065;50.786;7.840;2023-08-17T03:40:53;2.87;;;1.70;;
21806;SDS011;11065;50.786;7.840;2023-08-17T03:43:22;4.50;;;1.60;;
21806;SDS011;11065;50.786;7.840;2023-08-17T03:45:51;3.30;;;1.87;;
21806;SDS011;11065;50.786;7.840;2023-08-17T03:48:19;3.33;;;1.60;;
21806;SDS011;11065;50.786;7.840;2023-08-17T03:50:50;2.60;;;1.53;;
21806;SDS011;11065;50.786;7.840;2023-08-17T03:53:19;2.23;;;1.40;;
21806;SDS011;11065;50.786;7.840;2023-08-17T03:55:47;2.83;;;1.60;;
21806;SDS011;11065;50.786;7.840;2023-08-17T03:58:17;3.40;;;1.60;;
21806;SDS011;11065;50.786;7.840;2023-08-17T04:00:48;1.90;;;1.40;;
21806;SDS011;11065;50.786;7.840;2023-08-17T04:03:21;3.07;;;1.67;;
21806;SDS011;11065;50.786;7.840;2023-08-17T04:05:49;3.10;;;1.60;;
21806;SDS011;11065;50.786;7.840;2023-08-17T04:08:17;5.23;;;1.83;;
21806;SDS011;11065;50.786;7.840;2023-08-17T04:10:45;3.40;;;1.90;;
21806;SDS011;11065;50.786;7.840;2023-08-17T04:13:12;5.20;;;1.80;;
21806;SDS011;11065;50.786;7.840;2023-08-17T04:15:42;2.83;;;1.73;;
21806;SDS011;11065;50.786;7.840;2023-08-17T04:18:11;3.47;;;1.70;;
21806;SDS011;11065;50.786;7.840;2023-08-17T04:20:39;3.63;;;1.77;;
21806;SDS011;11065;50.786;7.840;2023-08-17T04:23:07;3.17;;;1.97;;
21806;SDS011;11065;50.786;7.840;2023-08-17T04:25:35;3.47;;;1.87;;
21806;SDS011;11065;50.786;7.840;2023-08-17T04:28:03;2.63;;;1.73;;
21806;SDS011;11065;50.786;7.840;2023-08-17T04:30:33;2.80;;;2.20;;
21806;SDS011;11065;50.786;7.840;2023-08-17T04:33:03;4.23;;;2.27;;
21806;SDS011;11065;50.786;7.840;2023-08-17T04:35:33;3.20;;;2.10;;
21806;SDS011;11065;50.786;7.840;2023-08-17T04:38:02;4.40;;;1.97;;
21806;SDS011;11065;50.786;7.840;2023-08-17T04:40:30;2.60;;;1.73;;
21806;SDS011;11065;50.786;7.840;2023-08-17T04:42:59;2.90;;;1.83;;
21806;SDS011;11065;50.786;7.840;2023-08-17T04:45:28;3.40;;;2.20;;
21806;SDS011;11065;50.786;7.840;2023-08-17T04:47:56;3.17;;;1.93;;
21806;SDS011;11065;50.786;7.840;2023-08-17T04:50:25;4.70;;;1.97;;
21806;SDS011;11065;50.786;7.840;2023-08-17T04:52:53;3.00;;;1.83;;
21806;SDS011;11065;50.786;7.840;2023-08-17T04:55:21;2.77;;;1.93;;
21806;SDS011;11065;50.786;7.840;2023-08-17T04:57:49;2.00;;;1.40;;
21806;SDS011;11065;50.786;7.840;2023-08-17T05:00:17;2.00;;;1.30;;
21806;SDS011;11065;50.786;7.840;2023-08-17T05:02:51;2.20;;;1.10;;
21806;SDS011;11065;50.786;7.840;2023-08-17T05:05:20;2.20;;;1.40;;
21806;SDS011;11065;50.786;7.840;2023-08-17T05:07:49;2.53;;;1.43;;
21806;SDS011;11065;50.786;7.840;2023-08-17T05:10:17;2.10;;;1.20;;
21806;SDS011;11065;50.786;7.840;2023-08-17T05:12:45;2.90;;;1.40;;
21806;SDS011;11065;50.786;7.840;2023-08-17T05:15:13;1.93;;;1.20;;
21806;SDS011;11065;50.786;7.840;2023-08-17T05:17:41;1.63;;;1.20;;
21806;SDS011;11065;50.786;7.840;2023-08-17T05:20:11;1.23;;;0.83;;
21806;SDS011;11065;50.786;7.840;2023-08-17T05:22:40;1.47;;;1.00;;
21806;SDS011;11065;50.786;7.840;2023-08-17T05:25:09;2.80;;;1.23;;
21806;SDS011;11065;50.786;7.840;2023-08-17T05:27:38;1.43;;;1.03;;
21806;SDS011;11065;50.786;7.840;2023-08-17T05:30:07;1.30;;;1.00;;
21806;SDS011;11065;50.786;7.840;2023-08-17T05:32:36;1.37;;;0.90;;
21806;SDS011;11065;50.786;7.840;2023-08-17T05:35:04;1.27;;;0.90;;
21806;SDS011;11065;50.786;7.840;2023-08-17T05:37:32;2.33;;;1.10;;
21806;SDS011;11065;50.786;7.840;2023-08-17T05:40:00;2.17;;;1.20;;
21806;SDS011;11065;50.786;7.840;2023-08-17T05:42:29;1.37;;;1.13;;
21806;SDS011;11065;50.786;7.840;2023-08-17T05:44:57;3.20;;;1.60;;
21806;SDS011;11065;50.786;7.840;2023-08-17T05:47:25;1.77;;;1.23;;
21806;SDS011;11065;50.786;7.840;2023-08-17T05:49:54;1.60;;;1.20;;
21806;SDS011;11065;50.786;7.840;2023-08-17T05:52:21;1.90;;;1.40;;
21806;SDS011;11065;50.786;7.840;2023-08-17T05:54:49;1.93;;;1.30;;
21806;SDS011;11065;50.786;7.840;2023-08-17T05:57:17;2.00;;;1.30;;
21806;SDS011;11065;50.786;7.840;2023-08-17T05:59:46;2.33;;;1.20;;
21806;SDS011;11065;50.786;7.840;2023-08-17T06:02:14;4.47;;;1.70;;
21806;SDS011;11065;50.786;7.840;2023-08-17T06:04:42;3.10;;;1.30;;
21806;SDS011;11065;50.786;7.840;2023-08-17T06:07:10;2.07;;;1.10;;
21806;SDS011;11065;50.786;7.840;2023-08-17T06:09:38;3.57;;;1.27;;
21806;SDS011;11065;50.786;7.840;2023-08-17T06:12:06;2.33;;;1.33;;
21806;SDS011;11065;50.786;7.840;2023-08-17T06:14:34;2.87;;;1.50;;
21806;SDS011;11065;50.786;7.840;2023-08-17T06:17:04;3.47;;;1.43;;
21806;SDS011;11065;50.786;7.840;2023-08-17T06:19:32;4.93;;;1.43;;
21806;SDS011;11065;50.786;7.840;2023-08-17T06:22:00;2.03;;;1.37;;
21806;SDS011;11065;50.786;7.840;2023-08-17T06:24:28;2.67;;;1.60;;
21806;SDS011;11065;50.786;7.840;2023-08-17T06:26:56;4.23;;;1.80;;
21806;SDS011;11065;50.786;7.840;2023-08-17T06:29:23;5.00;;;2.10;;
21806;SDS011;11065;50.786;7.840;2023-08-17T06:31:51;5.23;;;1.90;;
21806;SDS011;11065;50.786;7.840;2023-08-17T06:34:22;3.50;;;1.93;;
21806;SDS011;11065;50.786;7.840;2023-08-17T06:36:57;3.17;;;1.80;;
21806;SDS011;11065;50.786;7.840;2023-08-17T06:39:26;5.97;;;1.90;;
21806;SDS011;11065;50.786;7.840;2023-08-17T06:41:54;4.30;;;2.30;;
21806;SDS011;11065;50.786;7.840;2023-08-17T06:44:22;5.30;;;2.00;;
21806;SDS011;11065;50.786;7.840;2023-08-17T06:46:50;5.80;;;2.37;;
21806;SDS011;11065;50.786;7.840;2023-08-17T06:49:18;5.97;;;2.37;;
21806;SDS011;11065;50.786;7.840;2023-08-17T06:51:47;4.60;;;2.00;;
21806;SDS011;11065;50.786;7.840;2023-08-17T06:54:15;5.97;;;3.00;;
21806;SDS011;11065;50.786;7.840;2023-08-17T06:56:43;6.17;;;2.73;;
21806;SDS011;11065;50.786;7.840;2023-08-17T06:59:11;5.93;;;2.90;;
21806;SDS011;11065;50.786;7.840;2023-08-17T07:01:39;4.97;;;2.67;;
21806;SDS011;11065;50.786;7.840;2023-08-17T07:04:07;6.73;;;2.47;;
21806;SDS011;11065;50.786;7.840;2023-08-17T07:06:35;5.67;;;2.70;;
21806;SDS011;11065;50.786;7.840;2023-08-17T07:09:04;6.10;;;2.83;;
21806;SDS011;11065;50.786;7.840;2023-08-17T07:11:32;4.97;;;2.50;;
21806;SDS011;11065;50.786;7.840;2023-08-17T07:14:00;7.30;;;2.77;;
21806;SDS011;11065;50.786;7.840;2023-08-17T07:16:28;4.37;;;2.43;;
21806;SDS011;11065;50.786;7.840;2023-08-17T07:18:56;6.07;;;2.90;;
21806;SDS011;11065;50.786;7.840;2023-08-17T07:21:24;7.23;;;3.03;;
21806;SDS011;11065;50.786;7.840;2023-08-17T07:23:54;6.03;;;2.33;;
21806;SDS011;11065;50.786;7.840;2023-08-17T07:26:23;4.93;;;2.83;;
21806;SDS011;11065;50.786;7.840;2023-08-17T07:28:51;6.50;;;2.97;;
21806;SDS011;11065;50.786;7.840;2023-08-17T07:31:19;5.53;;;2.73;;
21806;SDS011;11065;50.786;7.840;2023-08-17T07:33:47;6.07;;;2.77;;
21806;SDS011;11065;50.786;7.840;2023-08-17T07:36:15;4.47;;;2.70;;
21806;SDS011;11065;50.786;7.840;2023-08-17T07:38:43;5.50;;;3.00;;
21806;SDS011;11065;50.786;7.840;2023-08-17T07:41:11;4.03;;;2.60;;
21806;SDS011;11065;50.786;7.840;2023-08-17T07:43:40;3.30;;;2.10;;
21806;SDS011;11065;50.786;7.840;2023-08-17T07:46:08;4.70;;;2.13;;
21806;SDS011;11065;50.786;7.840;2023-08-17T07:48:36;5.77;;;2.70;;
21806;SDS011;11065;50.786;7.840;2023-08-17T07:51:04;3.97;;;2.30;;
21806;SDS011;11065;50.786;7.840;2023-08-17T07:53:32;2.97;;;1.90;;
21806;SDS011;11065;50.786;7.840;2023-08-17T07:55:59;2.50;;;1.90;;
21806;SDS011;11065;50.786;7.840;2023-08-17T07:58:27;2.83;;;2.20;;
21806;SDS011;11065;50.786;7.840;2023-08-17T08:01:03;2.40;;;1.70;;
21806;SDS011;11065;50.786;7.840;2023-08-17T08:03:31;2.27;;;1.80;;
21806;SDS011;11065;50.786;7.840;2023-08-17T08:05:59;2.40;;;1.83;;
21806;SDS011;11065;50.786;7.840;2023-08-17T08:08:27;4.00;;;1.90;;
21806;SDS011;11065;50.786;7.840;2023-08-17T08:10:55;3.80;;;2.20;;
21806;SDS011;11065;50.786;7.840;2023-08-17T08:13:23;3.17;;;2.10;;
21806;SDS011;11065;50.786;7.840;2023-08-17T08:15:51;2.83;;;2.00;;
21806;SDS011;11065;50.786;7.840;2023-08-17T08:18:21;3.27;;;2.17;;
21806;SDS011;11065;50.786;7.840;2023-08-17T08:20:49;2.60;;;1.98;;
21806;SDS011;11065;50.786;7.840;2023-08-17T08:23:17;2.83;;;2.17;;
21806;SDS011;11065;50.786;7.840;2023-08-17T08:25:45;2.30;;;1.90;;
21806;SDS011;11065;50.786;7.840;2023-08-17T08:28:12;3.58;;;2.15;;
21806;SDS011;11065;50.786;7.840;2023-08-17T08:30:40;3.87;;;2.17;;
21806;SDS011;11065;50.786;7.840;2023-08-17T08:33:08;4.25;;;2.78;;
21806;SDS011;11065;50.786;7.840;2023-08-17T08:35:37;3.10;;;1.97;;
21806;SDS011;11065;50.786;7.840;2023-08-17T08:38:06;2.70;;;2.33;;
21806;SDS011;11065;50.786;7.840;2023-08-17T08:40:34;3.60;;;2.87;;
21806;SDS011;11065;50.786;7.840;2023-08-17T08:43:05;4.72;;;2.65;;
21806;SDS011;11065;50.786;7.840;2023-08-17T08:45:35;3.95;;;2.65;;
21806;SDS011;11065;50.786;7.840;2023-08-17T08:48:04;3.85;;;2.28;;
21806;SDS011;11065;50.786;7.840;2023-08-17T08:50:33;3.20;;;2.47;;
21806;SDS011;11065;50.786;7.840;2023-08-17T08:53:04;3.50;;;2.35;;
21806;SDS011;11065;50.786;7.840;2023-08-17T08:55:42;2.85;;;2.15;;
21806;SDS011;11065;50.786;7.840;2023-08-17T08:58:15;4.68;;;2.60;;
21806;SDS011;11065;50.786;7.840;2023-08-17T09:00:45;2.92;;;2.28;;
21806;SDS011;11065;50.786;7.840;2023-08-17T09:03:13;3.78;;;2.20;;
21806;SDS011;11065;50.786;7.840;2023-08-17T09:05:44;2.45;;;2.10;;
21806;SDS011;11065;50.786;7.840;2023-08-17T09:08:21;3.65;;;2.40;;
21806;SDS011;11065;50.786;7.840;2023-08-17T09:10:50;3.38;;;2.15;;
21806;SDS011;11065;50.786;7.840;2023-08-17T09:13:18;3.33;;;2.22;;
21806;SDS011;11065;50.786;7.840;2023-08-17T09:15:46;2.65;;;2.38;;
21806;SDS011;11065;50.786;7.840;2023-08-17T09:18:14;2.78;;;2.42;;
21806;SDS011;11065;50.786;7.840;2023-08-17T09:20:44;2.60;;;2.38;;
21806;SDS011;11065;50.786;7.840;2023-08-17T09:23:15;2.88;;;2.58;;
21806;SDS011;11065;50.786;7.840;2023-08-17T09:25:46;3.55;;;2.38;;
21806;SDS011;11065;50.786;7.840;2023-08-17T09:28:16;4.03;;;2.28;;
21806;SDS011;11065;50.786;7.840;2023-08-17T09:30:54;2.90;;;2.35;;
21806;SDS011;11065;50.786;7.840;2023-08-17T09:33:24;2.78;;;2.28;;
21806;SDS011;11065;50.786;7.840;2023-08-17T09:35:54;2.80;;;2.50;;
21806;SDS011;11065;50.786;7.840;2023-08-17T09:38:26;2.60;;;2.30;;
21806;SDS011;11065;50.786;7.840;2023-08-17T09:40:55;2.80;;;2.38;;
21806;SDS011;11065;50.786;7.840;2023-08-17T09:43:24;3.10;;;2.67;;
21806;SDS011;11065;50.786;7.840;2023-08-17T09:45:54;2.70;;;2.35;;
21806;SDS011;11065;50.786;7.840;2023-08-17T09:48:22;3.13;;;2.30;;
21806;SDS011;11065;50.786;7.840;2023-08-17T09:50:58;4.38;;;2.22;;
21806;SDS011;11065;50.786;7.840;2023-08-17T09:53:33;3.20;;;2.20;;
21806;SDS011;11065;50.786;7.840;2023-08-17T09:56:03;3.47;;;2.50;;
21806;SDS011;11065;50.786;7.840;2023-08-17T09:58:33;2.72;;;2.50;;
21806;SDS011;11065;50.786;7.840;2023-08-17T10:01:02;2.50;;;2.10;;
21806;SDS011;11065;50.786;7.840;2023-08-17T10:03:32;3.20;;;2.50;;
21806;SDS011;11065;50.786;7.840;2023-08-17T10:06:02;5.72;;;2.20;;
21806;SDS011;11065;50.786;7.840;2023-08-17T10:08:35;2.60;;;2.40;;
21806;SDS011;11065;50.786;7.840;2023-08-17T10:11:10;4.47;;;2.55;;
21806;SDS011;11065;50.786;7.840;2023-08-17T10:13:42;2.85;;;2.38;;
21806;SDS011;11065;50.786;7.840;2023-08-17T10:16:19;2.85;;;2.40;;
21806;SDS011;11065;50.786;7.840;2023-08-17T10:18:58;4.35;;;2.38;;
21806;SDS011;11065;50.786;7.840;2023-08-17T10:21:36;2.90;;;2.35;;
21806;SDS011;11065;50.786;7.840;2023-08-17T10:24:08;4.57;;;2.50;;
21806;SDS011;11065;50.786;7.840;2023-08-17T10:26:37;3.55;;;2.63;;
21806;SDS011;11065;50.786;7.840;2023-08-17T10:29:06;2.95;;;2.65;;
21806;SDS011;11065;50.786;7.840;2023-08-17T10:31:43;3.13;;;2.80;;
21806;SDS011;11065;50.786;7.840;2023-08-17T10:34:12;4.10;;;2.67;;
21806;SDS011;11065;50.786;7.840;2023-08-17T10:36:41;2.38;;;2.13;;
21806;SDS011;11065;50.786;7.840;2023-08-17T10:39:24;3.25;;;2.83;;
21806;SDS011;11065;50.786;7.840;2023-08-17T10:41:55;2.90;;;2.63;;
21806;SDS011;11065;50.786;7.840;2023-08-17T10:44:37;3.17;;;2.25;;
21806;SDS011;11065;50.786;7.840;2023-08-17T10:47:20;4.43;;;2.70;;
21806;SDS011;11065;50.786;7.840;2023-08-17T10:49:49;3.05;;;2.40;;
21806;SDS011;11065;50.786;7.840;2023-08-17T10:52:24;3.65;;;2.97;;
21806;SDS011;11065;50.786;7.840;2023-08-17T10:54:55;2.60;;;2.10;;
21806;SDS011;11065;50.786;7.840;2023-08-17T10:57:33;2.67;;;2.22;;
21806;SDS011;11065;50.786;7.840;2023-08-17T11:00:06;3.00;;;2.35;;
21806;SDS011;11065;50.786;7.840;2023-08-17T11:02:45;2.35;;;2.15;;
21806;SDS011;11065;50.786;7.840;2023-08-17T11:05:33;4.40;;;2.97;;
21806;SDS011;11065;50.786;7.840;2023-08-17T11:08:03;3.85;;;2.80;;
21806;SDS011;11065;50.786;7.840;2023-08-17T11:10:33;2.67;;;2.42;;
21806;SDS011;11065;50.786;7.840;2023-08-17T11:13:01;3.45;;;2.65;;
21806;SDS011;11065;50.786;7.840;2023-08-17T11:15:34;2.92;;;2.42;;
21806;SDS011;11065;50.786;7.840;2023-08-17T11:18:06;3.63;;;2.40;;
21806;SDS011;11065;50.786;7.840;2023-08-17T11:20:36;3.00;;;2.35;;
21806;SDS011;11065;50.786;7.840;2023-08-17T11:23:06;3.45;;;2.53;;
21806;SDS011;11065;50.786;7.840;2023-08-17T11:25:36;3.10;;;2.25;;
21806;SDS011;11065;50.786;7.840;2023-08-17T11:28:06;2.85;;;2.63;;
21806;SDS011;11065;50.786;7.840;2023-08-17T11:30:35;2.88;;;2.55;;
21806;SDS011;11065;50.786;7.840;2023-08-17T11:33:05;2.60;;;2.20;;
21806;SDS011;11065;50.786;7.840;2023-08-17T11:35:34;2.28;;;1.90;;
21806;SDS011;11065;50.786;7.840;2023-08-17T11:38:02;3.20;;;2.28;;
21806;SDS011;11065;50.786;7.840;2023-08-17T11:40:35;2.70;;;1.98;;
21806;SDS011;11065;50.786;7.840;2023-08-17T11:43:04;2.47;;;2.00;;
21806;SDS011;11065;50.786;7.840;2023-08-17T11:45:32;2.58;;;2.10;;
21806;SDS011;11065;50.786;7.840;2023-08-17T11:48:01;2.08;;;1.88;;
21806;SDS011;11065;50.786;7.840;2023-08-17T11:50:30;2.50;;;2.30;;
21806;SDS011;11065;50.786;7.840;2023-08-17T11:52:58;2.63;;;2.30;;
21806;SDS011;11065;50.786;7.840;2023-08-17T11:55:27;3.97;;;2.00;;
21806;SDS011;11065;50.786;7.840;2023-08-17T11:57:56;2.40;;;2.13;;
21806;SDS011;11065;50.786;7.840;2023-08-17T12:00:24;3.38;;;2.13;;
21806;SDS011;11065;50.786;7.840;2023-08-17T12:02:53;2.13;;;1.75;;
21806;SDS011;11065;50.786;7.840;2023-08-17T12:05:22;2.47;;;1.98;;
21806;SDS011;11065;50.786;7.840;2023-08-17T12:07:53;2.67;;;2.15;;
21806;SDS011;11065;50.786;7.840;2023-08-17T12:10:21;2.05;;;1.85;;
21806;SDS011;11065;50.786;7.840;2023-08-17T12:12:49;2.67;;;2.15;;
21806;SDS011;11065;50.786;7.840;2023-08-17T12:15:19;1.95;;;1.75;;
21806;SDS011;11065;50.786;7.840;2023-08-17T12:17:47;2.22;;;1.80;;
21806;SDS011;11065;50.786;7.840;2023-08-17T12:20:19;1.83;;;1.73;;
21806;SDS011;11065;50.786;7.840;2023-08-17T12:22:47;2.42;;;2.22;;
21806;SDS011;11065;50.786;7.840;2023-08-17T12:25:15;3.47;;;1.98;;
21806;SDS011;11065;50.786;7.840;2023-08-17T12:27:47;2.20;;;1.80;;
21806;SDS011;11065;50.786;7.840;2023-08-17T12:30:25;1.80;;;1.70;;
21806;SDS011;11065;50.786;7.840;2023-08-17T12:32:54;1.92;;;1.60;;
21806;SDS011;11065;50.786;7.840;2023-08-17T12:35:24;3.55;;;1.77;;
21806;SDS011;11065;50.786;7.840;2023-08-17T12:37:52;2.10;;;1.70;;
21806;SDS011;11065;50.786;7.840;2023-08-17T12:40:21;2.15;;;1.70;;
21806;SDS011;11065;50.786;7.840;2023-08-17T12:42:49;1.67;;;1.58;;
21806;SDS011;11065;50.786;7.840;2023-08-17T12:45:17;1.90;;;1.65;;
21806;SDS011;11065;50.786;7.840;2023-08-17T12:47:46;3.83;;;1.77;;
21806;SDS011;11065;50.786;7.840;2023-08-17T12:50:15;1.92;;;1.67;;
21806;SDS011;11065;50.786;7.840;2023-08-17T12:52:43;2.20;;;1.98;;
21806;SDS011;11065;50.786;7.840;2023-08-17T12:55:13;2.08;;;1.75;;
21806;SDS011;11065;50.786;7.840;2023-08-17T12:57:41;1.83;;;1.65;;
21806;SDS011;11065;50.786;7.840;2023-08-17T13:00:09;1.77;;;1.45;;
21806;SDS011;11065;50.786;7.840;2023-08-17T13:02:38;1.98;;;1.70;;
21806;SDS011;11065;50.786;7.840;2023-08-17T13:05:08;2.58;;;1.70;;
21806;SDS011;11065;50.786;7.840;2023-08-17T13:07:36;2.17;;;1.77;;
21806;SDS011;11065;50.786;7.840;2023-08-17T13:10:04;2.28;;;1.80;;
21806;SDS011;11065;50.786;7.840;2023-08-17T13:12:32;3.80;;;2.33;;
21806;SDS011;11065;50.786;7.840;2023-08-17T13:15:00;2.83;;;1.80;;
21806;SDS011;11065;50.786;7.840;2023-08-17T13:17:29;2.03;;;1.83;;
21806;SDS011;11065;50.786;7.840;2023-08-17T13:19:57;2.13;;;1.63;;
21806;SDS011;11065;50.786;7.840;2023-08-17T13:22:26;2.60;;;1.58;;
21806;SDS011;11065;50.786;7.840;2023-08-17T13:24:55;1.90;;;1.70;;
21806;SDS011;11065;50.786;7.840;2023-08-17T13:27:23;1.80;;;1.55;;
21806;SDS011;11065;50.786;7.840;2023-08-17T13:29:51;5.15;;;1.75;;
21806;SDS011;11065;50.786;7.840;2023-08-17T13:32:19;2.65;;;2.00;;
21806;SDS011;11065;50.786;7.840;2023-08-17T13:34:47;2.53;;;1.90;;
21806;SDS011;11065;50.786;7.840;2023-08-17T13:37:15;2.30;;;1.80;;
21806;SDS011;11065;50.786;7.840;2023-08-17T13:39:44;3.78;;;1.75;;
21806;SDS011;11065;50.786;7.840;2023-08-17T13:42:13;2.25;;;1.40;;
21806;SDS011;11065;50.786;7.840;2023-08-17T13:44:41;6.47;;;2.00;;
21806;SDS011;11065;50.786;7.840;2023-08-17T13:47:09;2.10;;;1.70;;
21806;SDS011;11065;50.786;7.840;2023-08-17T13:49:37;1.70;;;1.50;;
21806;SDS011;11065;50.786;7.840;2023-08-17T13:52:05;2.22;;;1.88;;
21806;SDS011;11065;50.786;7.840;2023-08-17T13:54:33;2.20;;;1.80;;
21806;SDS011;11065;50.786;7.840;2023-08-17T13:57:02;2.30;;;1.67;;
21806;SDS011;11065;50.786;7.840;2023-08-17T13:59:31;1.90;;;1.70;;
21806;SDS011;11065;50.786;7.840;2023-08-17T14:01:58;2.25;;;1.65;;
21806;SDS011;11065;50.786;7.840;2023-08-17T14:04:26;2.85;;;2.08;;
21806;SDS011;11065;50.786;7.840;2023-08-17T14:06:54;2.78;;;1.55;;
21806;SDS011;11065;50.786;7.840;2023-08-17T14:09:22;1.73;;;1.35;;
21806;SDS011;11065;50.786;7.840;2023-08-17T14:11:50;1.90;;;1.52;;
21806;SDS011;11065;50.786;7.840;2023-08-17T14:14:19;2.50;;;1.73;;
21806;SDS011;11065;50.786;7.840;2023-08-17T14:16:47;1.52;;;1.42;;
21806;SDS011;11065;50.786;7.840;2023-08-17T14:19:15;2.45;;;1.83;;
21806;SDS011;11065;50.786;7.840;2023-08-17T14:21:43;2.38;;;1.88;;
21806;SDS011;11065;50.786;7.840;2023-08-17T14:24:11;1.95;;;1.73;;
21806;SDS011;11065;50.786;7.840;2023-08-17T14:26:39;1.75;;;1.40;;
21806;SDS011;11065;50.786;7.840;2023-08-17T14:29:07;9.13;;;2.33;;
21806;SDS011;11065;50.786;7.840;2023-08-17T14:31:37;1.85;;;1.55;;
21806;SDS011;11065;50.786;7.840;2023-08-17T14:34:05;2.72;;;1.63;;
21806;SDS011;11065;50.786;7.840;2023-08-17T14:36:33;1.63;;;1.52;;
21806;SDS011;11065;50.786;7.840;2023-08-17T14:39:01;2.58;;;1.50;;
21806;SDS011;11065;50.786;7.840;2023-08-17T14:41:29;1.80;;;1.65;;
21806;SDS011;11065;50.786;7.840;2023-08-17T14:43:59;4.05;;;1.48;;
21806;SDS011;11065;50.786;7.840;2023-08-17T14:46:28;2.13;;;1.45;;
21806;SDS011;11065;50.786;7.840;2023-08-17T14:48:58;1.88;;;1.52;;
21806;SDS011;11065;50.786;7.840;2023-08-17T14:51:27;1.80;;;1.60;;
21806;SDS011;11065;50.786;7.840;2023-08-17T14:53:57;1.58;;;1.40;;
21806;SDS011;11065;50.786;7.840;2023-08-17T14:56:25;1.73;;;1.45;;
21806;SDS011;11065;50.786;7.840;2023-08-17T14:58:53;2.15;;;1.63;;
21806;SDS011;11065;50.786;7.840;2023-08-17T15:01:21;1.67;;;1.45;;